Time;durP1;ratioP1;P1;durP2;ratioP2;P2;SDS_P1;SDS_P2;PMS_P1;PMS_P2;Temp;Humidity;BMP_temperature;BMP_pressure;BME280_temperature;BME280_humidity;BME280_pressure;Samples;Min_cycle;Max_cycle;Signal;HPM_P1;HPM_P2
2023/03/30 00:00:35;;;;;;;;;;;12.80;99.90;;;;;;8252295;28;20536;-78
2023/03/30 00:04:36;;;;;;;;;;;12.80;99.90;;;;;;8249043;28;19906;-77
2023/03/30 00:08:37;;;;;;;;;;;12.70;99.90;;;;;;8258668;28;19905;-78
2023/03/30 00:12:37;;;;;;;;;;;12.70;99.90;;;;;;8252904;28;19910;-77
2023/03/30 00:16:38;;;;;;;;;;;12.50;99.90;;;;;;8258642;28;19912;-78
2023/03/30 00:20:41;;;;;;;;;;;12.30;99.90;;;;;;8253131;28;19914;-78
2023/03/30 00:24:42;;;;;;;;;;;12.40;99.90;;;;;;8247968;28;19914;-78
2023/03/30 00:28:42;;;;;;;;;;;12.40;99.90;;;;;;8264306;28;19967;-78
2023/03/30 00:32:44;;;;;;;;;;;12.60;99.90;;;;;;8264214;28;19913;-78
2023/03/30 00:36:45;;;;;;;;;;;12.70;99.90;;;;;;8261429;28;19955;-77
2023/03/30 00:40:53;;;;;;;;;;;12.30;99.90;;;;;;8250055;28;20024;-76
2023/03/30 00:45:12;;;;;;;;;;;12.40;99.90;;;;;;8262806;28;20304;-76
2023/03/30 00:49:12;;;;;;;;;;;12.30;99.90;;;;;;8259071;28;19916;-77
2023/03/30 00:53:33;;;;;;;;;;;12.30;99.90;;;;;;8264324;28;19914;-76
2023/03/30 00:57:36;;;;;;;;;;;12.50;99.90;;;;;;8263758;28;19956;-77
2023/03/30 01:01:39;;;;;;;;;;;12.40;99.90;;;;;;8247072;28;20379;-76
2023/03/30 01:05:40;;;;;;;;;;;12.20;99.90;;;;;;8256313;28;19968;-75
2023/03/30 01:09:41;;;;;;;;;;;11.80;99.90;;;;;;8260173;28;19964;-77
2023/03/30 01:13:43;;;;;;;;;;;11.40;99.90;;;;;;8260242;28;20420;-75
2023/03/30 01:17:56;;;;;;;;;;;11.20;99.90;;;;;;8263975;28;19942;-76
2023/03/30 01:22:03;;;;;;;;;;;11.10;99.90;;;;;;8263122;28;20297;-77
2023/03/30 01:26:15;;;;;;;;;;;10.90;99.90;;;;;;8252746;28;19910;-75
2023/03/30 01:30:35;;;;;;;;;;;10.60;99.90;;;;;;8247262;28;19905;-76
2023/03/30 01:34:41;;;;;;;;;;;10.40;99.90;;;;;;8254367;28;19910;-77
2023/03/30 01:39:01;;;;;;;;;;;10.30;99.90;;;;;;8251544;28;19959;-77
2023/03/30 01:43:26;;;;;;;;;;;10.20;99.90;;;;;;8257779;28;19984;-77
2023/03/30 01:47:36;;;;;;;;;;;10.60;99.90;;;;;;8248565;28;19905;-77
2023/03/30 01:51:41;;;;;;;;;;;10.90;99.90;;;;;;8262671;28;20085;-77
2023/03/30 01:55:51;;;;;;;;;;;11.00;99.90;;;;;;8247419;28;20076;-76
2023/03/30 01:59:54;;;;;;;;;;;11.00;99.90;;;;;;8252060;28;19915;-76
2023/03/30 02:03:56;;;;;;;;;;;11.00;99.90;;;;;;8251709;28;19913;-77
2023/03/30 02:08:00;;;;;;;;;;;11.10;99.90;;;;;;8248915;28;19932;-76
2023/03/30 02:12:01;;;;;;;;;;;11.00;99.90;;;;;;8262254;28;19937;-76
2023/03/30 02:16:04;;;;;;;;;;;10.90;99.90;;;;;;8258858;28;19910;-76
2023/03/30 02:20:08;;;;;;;;;;;10.90;99.90;;;;;;8242474;28;20325;-76
2023/03/30 02:24:16;;;;;;;;;;;10.90;99.90;;;;;;8251967;28;19912;-77
2023/03/30 02:28:17;;;;;;;;;;;10.90;99.90;;;;;;8252599;28;20370;-77
2023/03/30 02:32:20;;;;;;;;;;;11.10;99.90;;;;;;8256655;28;19910;-77
2023/03/30 02:36:27;;;;;;;;;;;11.00;99.90;;;;;;8257347;28;19906;-77
2023/03/30 02:40:33;;;;;;;;;;;11.30;99.90;;;;;;8257571;28;19910;-78
2023/03/30 02:44:37;;;;;;;;;;;11.20;99.90;;;;;;8262091;28;19913;-78
2023/03/30 02:48:37;;;;;;;;;;;11.30;99.90;;;;;;8247597;28;20283;-78
2023/03/30 02:52:54;;;;;;;;;;;11.30;99.90;;;;;;8253373;28;19906;-76
2023/03/30 02:57:03;;;;;;;;;;;11.20;99.90;;;;;;8265414;28;19921;-78
2023/03/30 03:01:27;;;;;;;;;;;10.80;99.90;;;;;;8250679;28;19917;-77
2023/03/30 03:05:28;;;;;;;;;;;10.70;99.90;;;;;;8250668;28;20392;-77
2023/03/30 03:09:28;;;;;;;;;;;10.40;99.90;;;;;;8255159;28;19909;-79
2023/03/30 03:13:29;;;;;;;;;;;10.20;99.90;;;;;;8272345;28;19906;-76
2023/03/30 03:17:33;;;;;;;;;;;10.20;99.90;;;;;;8284699;28;19913;-76
2023/03/30 03:21:34;;;;;;;;;;;10.10;99.90;;;;;;8267277;28;19995;-75
2023/03/30 03:25:35;;;;;;;;;;;10.20;99.90;;;;;;8250027;28;20450;-76
2023/03/30 03:29:36;;;;;;;;;;;10.00;99.90;;;;;;8258136;28;19976;-76
2023/03/30 03:33:37;;;;;;;;;;;10.30;99.90;;;;;;8251523;28;19909;-75
2023/03/30 03:37:37;;;;;;;;;;;10.40;99.90;;;;;;8252236;28;19910;-76
2023/03/30 03:41:37;;;;;;;;;;;10.20;99.90;;;;;;8238089;28;19969;-77
2023/03/30 03:45:38;;;;;;;;;;;10.10;99.90;;;;;;8238001;28;19917;-77
2023/03/30 03:49:38;;;;;;;;;;;10.10;99.90;;;;;;8245549;28;20008;-78
2023/03/30 03:53:39;;;;;;;;;;;10.10;99.90;;;;;;8230579;28;19914;-78
2023/03/30 03:57:40;;;;;;;;;;;10.30;99.90;;;;;;8243124;28;19945;-77
2023/03/30 04:01:40;;;;;;;;;;;10.30;99.90;;;;;;8261215;28;19914;-78
2023/03/30 04:05:41;;;;;;;;;;;10.20;99.90;;;;;;8254844;28;20455;-77
2023/03/30 04:09:41;;;;;;;;;;;10.10;99.90;;;;;;8254854;28;19913;-78
2023/03/30 04:13:42;;;;;;;;;;;10.20;99.90;;;;;;8256832;28;19909;-79
2023/03/30 04:17:43;;;;;;;;;;;10.20;99.90;;;;;;8259532;28;20358;-77
2023/03/30 04:21:46;;;;;;;;;;;10.40;99.90;;;;;;8263186;28;20286;-79
2023/03/30 04:25:46;;;;;;;;;;;10.60;99.90;;;;;;8248690;28;19972;-79
2023/03/30 04:29:46;;;;;;;;;;;10.50;99.90;;;;;;8265625;28;19992;-78
2023/03/30 04:33:51;;;;;;;;;;;10.40;99.90;;;;;;8248923;28;19910;-78
2023/03/30 04:37:52;;;;;;;;;;;10.40;99.90;;;;;;8235957;28;19913;-79
2023/03/30 04:41:53;;;;;;;;;;;10.30;99.90;;;;;;8233640;28;19916;-79
2023/03/30 04:45:54;;;;;;;;;;;10.30;99.90;;;;;;8235507;28;19910;-79
2023/03/30 04:49:55;;;;;;;;;;;10.30;99.90;;;;;;8257061;28;19914;-79
2023/03/30 04:53:55;;;;;;;;;;;10.30;99.90;;;;;;8242845;28;19921;-78
2023/03/30 04:57:56;;;;;;;;;;;10.10;99.90;;;;;;8261382;28;19913;-79
2023/03/30 05:01:56;;;;;;;;;;;9.90;99.90;;;;;;8243458;28;20375;-80
2023/03/30 05:05:57;;;;;;;;;;;9.50;99.90;;;;;;8240018;28;19922;-79
2023/03/30 05:09:57;;;;;;;;;;;9.60;99.90;;;;;;8258421;28;19909;-80
2023/03/30 05:13:58;;;;;;;;;;;9.90;99.90;;;;;;8251531;28;19936;-79
2023/03/30 05:17:58;;;;;;;;;;;9.90;99.90;;;;;;8254075;28;19916;-78
2023/03/30 05:21:59;;;;;;;;;;;9.90;99.90;;;;;;8262266;28;19910;-78
2023/03/30 05:26:02;;;;;;;;;;;10.00;99.90;;;;;;8262017;28;19991;-79
2023/03/30 05:30:04;;;;;;;;;;;9.90;99.90;;;;;;8266080;28;19955;-80
2023/03/30 05:34:05;;;;;;;;;;;10.10;99.90;;;;;;8253031;28;19913;-78
2023/03/30 05:38:06;;;;;;;;;;;10.10;99.90;;;;;;8268662;28;19918;-78
2023/03/30 05:42:06;;;;;;;;;;;10.10;99.90;;;;;;8268114;28;19960;-78
2023/03/30 05:46:07;;;;;;;;;;;10.10;99.90;;;;;;8270252;28;19912;-80
2023/03/30 05:50:08;;;;;;;;;;;10.10;99.90;;;;;;8258689;28;19906;-78
2023/03/30 05:54:09;;;;;;;;;;;10.10;99.90;;;;;;8266549;28;19929;-81
2023/03/30 05:58:10;;;;;;;;;;;10.10;99.90;;;;;;8271738;28;20016;-81
2023/03/30 06:02:11;;;;;;;;;;;10.10;99.90;;;;;;8251888;28;19906;-82
2023/03/30 06:06:12;;;;;;;;;;;10.10;99.90;;;;;;8268206;28;19917;-82
2023/03/30 06:10:13;;;;;;;;;;;10.20;99.90;;;;;;8265760;28;19932;-84
2023/03/30 06:14:13;;;;;;;;;;;10.30;99.90;;;;;;8267564;28;20346;-84
2023/03/30 06:18:14;;;;;;;;;;;10.30;99.90;;;;;;8253796;28;20016;-83
2023/03/30 06:22:14;;;;;;;;;;;10.10;99.90;;;;;;8259777;28;19912;-85
2023/03/30 06:26:15;;;;;;;;;;;10.10;99.90;;;;;;8266623;28;19984;-83
2023/03/30 06:30:15;;;;;;;;;;;10.30;99.90;;;;;;8259181;28;19912;-80
2023/03/30 06:34:16;;;;;;;;;;;10.20;99.90;;;;;;8264673;28;19914;-80
2023/03/30 06:38:17;;;;;;;;;;;10.10;99.90;;;;;;8261530;28;20335;-80
2023/03/30 06:42:18;;;;;;;;;;;10.00;99.90;;;;;;8249643;28;19910;-80
2023/03/30 06:46:18;;;;;;;;;;;10.00;99.90;;;;;;8261753;28;20374;-79
2023/03/30 06:50:19;;;;;;;;;;;10.10;99.90;;;;;;8244625;28;20286;-80
2023/03/30 06:54:20;;;;;;;;;;;10.10;99.90;;;;;;8243532;28;19941;-79
2023/03/30 06:58:20;;;;;;;;;;;10.80;99.90;;;;;;8244376;28;19945;-80
2023/03/30 07:02:21;;;;;;;;;;;11.40;99.90;;;;;;8262402;28;19969;-80
2023/03/30 07:06:21;;;;;;;;;;;11.50;99.90;;;;;;8258998;28;19921;-79
2023/03/30 07:10:22;;;;;;;;;;;11.40;99.90;;;;;;8265911;28;19913;-80
2023/03/30 07:14:22;;;;;;;;;;;11.80;99.90;;;;;;8259411;28;19906;-79
2023/03/30 07:18:23;;;;;;;;;;;12.10;99.90;;;;;;8264761;28;19932;-80
2023/03/30 07:22:23;;;;;;;;;;;12.50;99.90;;;;;;8257491;28;20556;-78
2023/03/30 07:26:24;;;;;;;;;;;12.30;99.90;;;;;;8265281;28;19913;-80
2023/03/30 07:30:26;;;;;;;;;;;12.30;99.90;;;;;;8261349;28;19929;-80
2023/03/30 07:34:27;;;;;;;;;;;12.90;99.90;;;;;;8248860;28;19905;-80
2023/03/30 07:38:27;;;;;;;;;;;12.90;99.90;;;;;;8264823;28;19932;-80
2023/03/30 07:42:28;;;;;;;;;;;13.00;99.90;;;;;;8255419;28;19906;-79
2023/03/30 07:46:28;;;;;;;;;;;13.00;99.90;;;;;;8251648;28;19906;-79
2023/03/30 07:50:29;;;;;;;;;;;12.90;99.90;;;;;;8252076;28;19913;-80
2023/03/30 07:54:31;;;;;;;;;;;13.00;99.90;;;;;;8254550;28;19940;-80
2023/03/30 07:58:31;;;;;;;;;;;13.20;99.90;;;;;;8264734;28;20074;-80
2023/03/30 08:02:32;;;;;;;;;;;13.60;99.90;;;;;;8252773;28;19909;-80
2023/03/30 08:06:32;;;;;;;;;;;14.10;99.90;;;;;;8263177;28;19917;-79
2023/03/30 08:10:33;;;;;;;;;;;14.20;99.90;;;;;;8266517;28;19905;-80
2023/03/30 08:14:34;;;;;;;;;;;13.90;99.90;;;;;;8262397;28;19909;-80
2023/03/30 08:18:35;;;;;;;;;;;13.70;99.90;;;;;;8266045;28;19964;-78
2023/03/30 08:22:36;;;;;;;;;;;13.70;99.90;;;;;;8261670;28;19906;-79
2023/03/30 08:26:37;;;;;;;;;;;14.30;99.90;;;;;;8263789;28;19906;-79
2023/03/30 08:30:37;;;;;;;;;;;14.20;99.90;;;;;;8265667;28;19913;-79
2023/03/30 08:34:38;;;;;;;;;;;14.10;99.90;;;;;;8272391;28;19906;-79
2023/03/30 08:38:38;;;;;;;;;;;14.20;99.90;;;;;;8258362;28;19945;-79
2023/03/30 08:42:46;;;;;;;;;;;14.50;99.90;;;;;;8259052;28;19928;-79
2023/03/30 08:46:47;;;;;;;;;;;14.90;99.90;;;;;;8247943;28;19960;-78
2023/03/30 08:50:55;;;;;;;;;;;15.20;99.90;;;;;;8264432;28;20365;-78
2023/03/30 08:54:56;;;;;;;;;;;15.50;99.90;;;;;;8252718;28;19914;-78
2023/03/30 08:59:03;;;;;;;;;;;15.40;99.90;;;;;;8254342;28;20382;-78
2023/03/30 09:03:16;;;;;;;;;;;15.30;99.90;;;;;;8253883;28;19910;-78
2023/03/30 09:07:19;;;;;;;;;;;15.00;99.90;;;;;;8249905;28;19912;-78
2023/03/30 09:11:28;;;;;;;;;;;15.10;99.90;;;;;;8254819;28;19913;-78
2023/03/30 09:15:40;;;;;;;;;;;15.30;99.90;;;;;;8259790;28;20286;-78
2023/03/30 09:19:47;;;;;;;;;;;15.50;99.90;;;;;;8254252;28;19914;-78
2023/03/30 09:23:47;;;;;;;;;;;15.50;99.90;;;;;;8253107;28;19906;-78
2023/03/30 09:28:11;;;;;;;;;;;15.80;99.90;;;;;;8254290;28;20000;-78
2023/03/30 09:32:25;;;;;;;;;;;16.10;99.90;;;;;;8263555;28;19983;-79
2023/03/30 09:36:25;;;;;;;;;;;15.90;99.90;;;;;;8262944;28;19906;-78
2023/03/30 09:40:35;;;;;;;;;;;15.40;99.90;;;;;;8258936;28;19913;-78
2023/03/30 09:44:48;;;;;;;;;;;15.00;99.90;;;;;;8259609;28;19905;-78
2023/03/30 09:48:50;;;;;;;;;;;14.80;99.90;;;;;;8262209;28;20004;-77
2023/03/30 09:52:55;;;;;;;;;;;14.70;99.90;;;;;;8262341;28;20366;-77
2023/03/30 09:56:55;;;;;;;;;;;14.60;99.90;;;;;;8252487;28;19914;-78
2023/03/30 10:01:01;;;;;;;;;;;14.30;99.90;;;;;;8251781;28;19910;-77
2023/03/30 10:05:02;;;;;;;;;;;14.10;99.90;;;;;;8256808;28;20317;-77
2023/03/30 10:09:05;;;;;;;;;;;13.70;99.90;;;;;;8261572;28;19910;-77
2023/03/30 10:13:05;;;;;;;;;;;13.30;99.90;;;;;;8245360;28;19976;-78
2023/03/30 10:17:06;;;;;;;;;;;13.10;99.90;;;;;;8257747;28;20371;-78
2023/03/30 10:21:06;;;;;;;;;;;13.00;99.90;;;;;;8260904;28;19956;-77
2023/03/30 10:25:08;;;;;;;;;;;13.00;99.90;;;;;;8257280;28;20421;-76
2023/03/30 10:29:11;;;;;;;;;;;12.80;99.90;;;;;;8261594;28;19910;-78
2023/03/30 10:33:12;;;;;;;;;;;12.30;99.90;;;;;;8261312;28;19991;-80
2023/03/30 10:37:15;;;;;;;;;;;11.80;99.90;;;;;;8258700;28;19910;-82
2023/03/30 10:41:19;;;;;;;;;;;11.30;99.90;;;;;;8251696;28;19921;-80
2023/03/30 10:45:25;;;;;;;;;;;11.00;99.90;;;;;;8241943;28;20330;-81
2023/03/30 10:49:37;;;;;;;;;;;11.10;99.90;;;;;;8245637;28;19988;-80
2023/03/30 10:53:55;;;;;;;;;;;11.20;99.90;;;;;;8247571;28;19906;-79
2023/03/30 10:58:11;;;;;;;;;;;11.30;99.90;;;;;;8249120;28;20286;-79
2023/03/30 11:02:30;;;;;;;;;;;11.30;99.90;;;;;;8259894;28;19910;-79
2023/03/30 11:06:33;;;;;;;;;;;11.50;99.90;;;;;;8258477;28;19916;-79
2023/03/30 11:10:36;;;;;;;;;;;11.40;99.90;;;;;;8258943;28;19906;-79
2023/03/30 11:14:49;;;;;;;;;;;11.40;99.90;;;;;;8259279;28;19906;-80
2023/03/30 11:18:49;;;;;;;;;;;11.40;99.90;;;;;;8247376;28;19910;-80
2023/03/30 11:22:53;;;;;;;;;;;11.50;99.90;;;;;;8260158;28;19953;-81
2023/03/30 11:27:12;;;;;;;;;;;11.40;99.90;;;;;;8256282;28;19905;-80
2023/03/30 11:31:32;;;;;;;;;;;11.50;99.90;;;;;;8248839;28;19960;-80
2023/03/30 11:35:35;;;;;;;;;;;11.70;99.90;;;;;;8249155;28;19909;-80
2023/03/30 11:39:37;;;;;;;;;;;11.80;99.90;;;;;;8258079;28;19913;-82
2023/03/30 11:43:38;;;;;;;;;;;12.10;99.90;;;;;;8260318;28;19961;-81
2023/03/30 11:47:55;;;;;;;;;;;12.50;99.90;;;;;;8242204;28;19909;-80
2023/03/30 11:51:59;;;;;;;;;;;12.70;99.90;;;;;;8248544;28;20358;-80
2023/03/30 11:56:04;;;;;;;;;;;12.50;99.90;;;;;;8258154;28;19920;-80
2023/03/30 12:00:23;;;;;;;;;;;12.40;99.90;;;;;;8242062;28;19917;-79
2023/03/30 12:04:27;;;;;;;;;;;12.30;99.90;;;;;;8246409;28;19909;-81
2023/03/30 12:08:46;;;;;;;;;;;12.10;99.90;;;;;;8243696;28;19905;-80
2023/03/30 12:12:50;;;;;;;;;;;12.00;99.90;;;;;;8254747;28;19940;-79
2023/03/30 12:16:53;;;;;;;;;;;12.00;99.90;;;;;;8248656;28;19952;-79
2023/03/30 12:20:57;;;;;;;;;;;11.80;99.90;;;;;;8252276;28;19914;-81
2023/03/30 12:25:01;;;;;;;;;;;11.80;99.90;;;;;;8267698;28;19906;-80
2023/03/30 12:29:02;;;;;;;;;;;11.70;99.90;;;;;;8269419;28;19912;-79
2023/03/30 12:33:10;;;;;;;;;;;11.70;99.90;;;;;;8264447;28;20275;-79
2023/03/30 12:37:14;;;;;;;;;;;11.70;99.90;;;;;;8263141;28;19998;-79
2023/03/30 12:41:19;;;;;;;;;;;11.80;99.90;;;;;;8268240;28;19964;-79
2023/03/30 12:45:23;;;;;;;;;;;12.00;99.90;;;;;;8249215;28;19909;-79
2023/03/30 12:49:29;;;;;;;;;;;12.10;99.90;;;;;;8267379;28;20036;-79
2023/03/30 12:53:30;;;;;;;;;;;12.30;99.90;;;;;;8253849;28;19957;-79
2023/03/30 12:57:30;;;;;;;;;;;12.40;99.90;;;;;;8251335;28;19917;-79
2023/03/30 13:01:31;;;;;;;;;;;12.50;99.90;;;;;;8256223;28;19963;-79
2023/03/30 13:05:33;;;;;;;;;;;12.40;99.90;;;;;;8267919;28;20018;-78
2023/03/30 13:09:52;;;;;;;;;;;12.20;99.90;;;;;;8264265;28;19925;-78
2023/03/30 13:13:54;;;;;;;;;;;12.00;99.90;;;;;;8246733;28;20298;-78
2023/03/30 13:17:55;;;;;;;;;;;11.70;99.90;;;;;;8262316;28;19913;-78
2023/03/30 13:22:11;;;;;;;;;;;11.50;99.90;;;;;;8257355;28;19971;-79
2023/03/30 13:26:24;;;;;;;;;;;11.40;99.90;;;;;;8262218;28;20332;-79
2023/03/30 13:30:28;;;;;;;;;;;11.30;99.90;;;;;;8264252;28;19910;-79
2023/03/30 13:34:37;;;;;;;;;;;11.50;99.90;;;;;;8258463;28;20366;-79
2023/03/30 13:38:59;;;;;;;;;;;11.40;99.90;;;;;;8262264;28;20000;-79
2023/03/30 13:43:06;;;;;;;;;;;11.50;99.90;;;;;;8261977;28;20005;-80
2023/03/30 13:47:26;;;;;;;;;;;11.80;99.90;;;;;;8249279;28;19914;-79
2023/03/30 13:51:28;;;;;;;;;;;12.10;99.90;;;;;;8249453;28;20203;-79
2023/03/30 13:55:29;;;;;;;;;;;12.30;99.90;;;;;;8234071;28;20001;-80
2023/03/30 13:59:31;;;;;;;;;;;12.40;99.90;;;;;;8258116;28;19919;-80
2023/03/30 14:03:31;;;;;;;;;;;12.50;99.90;;;;;;8244790;28;20334;-81
2023/03/30 14:07:39;;;;;;;;;;;12.70;99.90;;;;;;8257220;28;19910;-81
2023/03/30 14:11:39;;;;;;;;;;;14.30;99.90;;;;;;8251042;28;19910;-82
2023/03/30 14:15:40;;;;;;;;;;;15.40;99.90;;;;;;8251051;28;19906;-81
2023/03/30 14:19:52;;;;;;;;;;;14.90;99.90;;;;;;8263344;28;19972;-82
2023/03/30 14:23:53;;;;;;;;;;;14.70;99.90;;;;;;8246625;28;19909;-82
2023/03/30 14:28:11;;;;;;;;;;;15.30;99.90;;;;;;8259131;28;19906;-81
2023/03/30 14:32:12;;;;;;;;;;;14.70;99.90;;;;;;8262216;28;19941;-81
2023/03/30 14:36:15;;;;;;;;;;;14.00;99.90;;;;;;8261105;28;20389;-81
2023/03/30 14:40:23;;;;;;;;;;;16.80;99.90;;;;;;8257075;28;20413;-81
2023/03/30 14:44:24;;;;;;;;;;;19.20;99.90;;;;;;8252976;28;20371;-81
2023/03/30 14:48:29;;;;;;;;;;;19.10;99.90;;;;;;8251494;28;20830;-81
2023/03/30 14:52:31;;;;;;;;;;;19.20;99.90;;;;;;8257525;28;19914;-80
2023/03/30 14:56:32;;;;;;;;;;;19.10;99.90;;;;;;8247156;28;19920;-80
2023/03/30 15:00:35;;;;;;;;;;;19.00;99.90;;;;;;8253224;28;19921;-80
2023/03/30 15:04:37;;;;;;;;;;;19.80;99.90;;;;;;8253447;28;19919;-79
2023/03/30 15:08:38;;;;;;;;;;;19.00;99.90;;;;;;8254234;28;20424;-79
2023/03/30 15:12:39;;;;;;;;;;;17.00;99.90;;;;;;8257469;28;20047;-79
2023/03/30 15:16:40;;;;;;;;;;;16.90;99.90;;;;;;8252724;28;19917;-79
2023/03/30 15:20:41;;;;;;;;;;;15.90;99.90;;;;;;8257047;28;20630;-78
2023/03/30 15:24:41;;;;;;;;;;;15.20;99.90;;;;;;8249256;28;20002;-79
2023/03/30 15:28:44;;;;;;;;;;;14.60;99.90;;;;;;8243737;28;20315;-78
2023/03/30 15:32:45;;;;;;;;;;;14.20;99.90;;;;;;8259609;28;20162;-78
2023/03/30 15:36:51;;;;;;;;;;;13.80;99.90;;;;;;8247944;28;19909;-79
2023/03/30 15:40:51;;;;;;;;;;;13.60;99.90;;;;;;8242493;28;19913;-79
2023/03/30 15:45:03;;;;;;;;;;;13.40;99.90;;;;;;8263368;28;19928;-78
2023/03/30 15:49:04;;;;;;;;;;;13.30;99.90;;;;;;8242794;28;20504;-79
2023/03/30 15:53:04;;;;;;;;;;;13.40;99.90;;;;;;8253656;28;19949;-79
2023/03/30 15:57:08;;;;;;;;;;;13.40;99.90;;;;;;8247505;28;20109;-78
2023/03/30 16:01:11;;;;;;;;;;;13.30;99.90;;;;;;8252112;28;19914;-78
2023/03/30 16:05:16;;;;;;;;;;;13.00;99.90;;;;;;8239511;28;20390;-79
2023/03/30 16:09:17;;;;;;;;;;;12.70;99.90;;;;;;8254812;28;19913;-78
2023/03/30 16:13:17;;;;;;;;;;;12.40;99.90;;;;;;8244619;28;20306;-78
2023/03/30 16:17:18;;;;;;;;;;;12.20;99.90;;;;;;8258912;28;19921;-79
2023/03/30 16:21:18;;;;;;;;;;;12.10;99.90;;;;;;8258824;28;19921;-77
2023/03/30 16:25:21;;;;;;;;;;;12.20;99.90;;;;;;8234525;28;19933;-78
2023/03/30 16:29:22;;;;;;;;;;;12.10;99.90;;;;;;8259765;28;19914;-77
2023/03/30 16:33:23;;;;;;;;;;;11.90;99.90;;;;;;8260183;28;20347;-78
2023/03/30 16:37:23;;;;;;;;;;;11.60;99.90;;;;;;8245675;28;19913;-77
2023/03/30 16:41:24;;;;;;;;;;;11.50;99.90;;;;;;8248082;28;20059;-78
2023/03/30 16:45:25;;;;;;;;;;;11.40;99.90;;;;;;8245220;28;20335;-78
2023/03/30 16:49:25;;;;;;;;;;;11.40;99.90;;;;;;8258930;28;19921;-79
2023/03/30 16:53:26;;;;;;;;;;;11.60;99.90;;;;;;8247636;28;19913;-77
2023/03/30 16:57:26;;;;;;;;;;;11.50;99.90;;;;;;8254250;28;19973;-77
2023/03/30 17:01:27;;;;;;;;;;;11.10;99.90;;;;;;8258219;28;19916;-78
2023/03/30 17:05:28;;;;;;;;;;;10.80;99.90;;;;;;8242547;28;19910;-79
2023/03/30 17:09:29;;;;;;;;;;;10.40;99.90;;;;;;8258727;28;20469;-79
2023/03/30 17:13:30;;;;;;;;;;;10.50;99.90;;;;;;8255227;28;19909;-78
2023/03/30 17:17:31;;;;;;;;;;;10.30;99.90;;;;;;8261132;28;19906;-78
2023/03/30 17:21:31;;;;;;;;;;;10.10;99.90;;;;;;8250851;28;19910;-79
2023/03/30 17:25:34;;;;;;;;;;;9.70;99.90;;;;;;8253462;28;19909;-79
2023/03/30 17:29:35;;;;;;;;;;;9.40;99.90;;;;;;8251758;28;20408;-81
2023/03/30 17:33:35;;;;;;;;;;;9.30;99.90;;;;;;8236224;28;19910;-79
2023/03/30 17:37:36;;;;;;;;;;;9.10;99.90;;;;;;8239762;28;19910;-80
2023/03/30 17:41:37;;;;;;;;;;;9.00;99.90;;;;;;8252959;28;20555;-79
2023/03/30 17:45:38;;;;;;;;;;;9.00;99.90;;;;;;8237195;28;19981;-80
2023/03/30 17:49:39;;;;;;;;;;;8.90;99.90;;;;;;8242452;28;19921;-81
2023/03/30 17:53:40;;;;;;;;;;;8.90;99.90;;;;;;8246185;28;19918;-81
2023/03/30 17:57:40;;;;;;;;;;;8.90;99.90;;;;;;8243140;28;19924;-80
2023/03/30 18:01:41;;;;;;;;;;;8.80;99.90;;;;;;8239715;28;19924;-80
2023/03/30 18:05:43;;;;;;;;;;;8.90;99.90;;;;;;8255412;28;19918;-81
2023/03/30 18:09:44;;;;;;;;;;;9.00;99.90;;;;;;8239205;28;19925;-81
2023/03/30 18:13:44;;;;;;;;;;;9.00;99.90;;;;;;8256114;28;20559;-80
2023/03/30 18:17:45;;;;;;;;;;;9.00;99.90;;;;;;8235329;28;19920;-82
2023/03/30 18:21:45;;;;;;;;;;;8.90;99.90;;;;;;8240190;28;19995;-79
2023/03/30 18:25:46;;;;;;;;;;;9.30;99.90;;;;;;8244651;28;19921;-79
2023/03/30 18:29:46;;;;;;;;;;;9.50;99.90;;;;;;8246131;28;19913;-78
2023/03/30 18:33:47;;;;;;;;;;;9.70;99.90;;;;;;8242610;28;19909;-78
2023/03/30 18:37:48;;;;;;;;;;;9.50;99.90;;;;;;8249093;28;20526;-78
2023/03/30 18:41:48;;;;;;;;;;;9.10;99.90;;;;;;8262002;28;20302;-78
2023/03/30 18:45:49;;;;;;;;;;;8.70;99.90;;;;;;8248772;28;20051;-79
2023/03/30 18:49:49;;;;;;;;;;;8.50;99.90;;;;;;8245597;28;19910;-77
2023/03/30 18:53:50;;;;;;;;;;;8.30;99.90;;;;;;8264913;28;19910;-79
2023/03/30 18:57:51;;;;;;;;;;;8.10;99.90;;;;;;8263762;28;19920;-78
2023/03/30 19:01:51;;;;;;;;;;;7.90;99.90;;;;;;8256088;28;19959;-78
2023/03/30 19:05:52;;;;;;;;;;;7.70;99.90;;;;;;8246511;28;19910;-78
2023/03/30 19:09:53;;;;;;;;;;;7.40;99.90;;;;;;8250415;28;19917;-79
2023/03/30 19:13:53;;;;;;;;;;;7.30;99.90;;;;;;8239398;28;20567;-79
2023/03/30 19:17:54;;;;;;;;;;;7.20;99.90;;;;;;8253636;28;19910;-79
2023/03/30 19:21:56;;;;;;;;;;;7.20;99.90;;;;;;8253945;28;19917;-78
2023/03/30 19:25:57;;;;;;;;;;;7.50;99.90;;;;;;8240970;28;19914;-78
2023/03/30 19:29:57;;;;;;;;;;;7.30;99.90;;;;;;8261393;28;19916;-78
2023/03/30 19:33:58;;;;;;;;;;;7.30;99.90;;;;;;8234524;28;19909;-80
2023/03/30 19:37:58;;;;;;;;;;;7.40;99.90;;;;;;8239465;28;20033;-80
2023/03/30 19:41:59;;;;;;;;;;;7.60;99.90;;;;;;8248192;28;19918;-80
2023/03/30 19:45:59;;;;;;;;;;;7.60;99.90;;;;;;8240708;28;19922;-79
2023/03/30 19:50:01;;;;;;;;;;;7.60;99.90;;;;;;8237363;28;19914;-78
2023/03/30 19:54:01;;;;;;;;;;;7.70;99.90;;;;;;8253300;28;19913;-79
2023/03/30 19:58:02;;;;;;;;;;;7.60;99.90;;;;;;8235637;28;19969;-79
2023/03/30 20:02:02;;;;;;;;;;;7.60;99.90;;;;;;8251654;28;20250;-79
2023/03/30 20:06:06;;;;;;;;;;;7.50;99.90;;;;;;8253707;28;19941;-80
2023/03/30 20:10:08;;;;;;;;;;;7.30;99.90;;;;;;8246079;28;20476;-80
2023/03/30 20:14:09;;;;;;;;;;;7.10;99.90;;;;;;8259679;28;20005;-81
2023/03/30 20:18:09;;;;;;;;;;;7.20;99.90;;;;;;8261345;28;19910;-79
2023/03/30 20:22:09;;;;;;;;;;;7.20;99.90;;;;;;8264094;28;19936;-79
2023/03/30 20:26:11;;;;;;;;;;;7.10;99.90;;;;;;8256637;28;19905;-79
2023/03/30 20:30:12;;;;;;;;;;;7.00;99.90;;;;;;8261527;28;19917;-78
2023/03/30 20:34:14;;;;;;;;;;;6.80;99.90;;;;;;8256617;28;19910;-79
2023/03/30 20:38:14;;;;;;;;;;;6.70;99.90;;;;;;8265383;28;20575;-80
2023/03/30 20:42:16;;;;;;;;;;;6.50;99.90;;;;;;8252388;28;20052;-79
2023/03/30 20:46:18;;;;;;;;;;;6.30;99.90;;;;;;8269960;28;19932;-79
2023/03/30 20:50:19;;;;;;;;;;;6.20;99.90;;;;;;8246138;28;19910;-78
2023/03/30 20:54:20;;;;;;;;;;;6.00;99.90;;;;;;8253311;28;19993;-80
2023/03/30 20:58:24;;;;;;;;;;;6.00;99.90;;;;;;8253175;28;19960;-79
2023/03/30 21:02:24;;;;;;;;;;;5.90;99.90;;;;;;8257774;28;19968;-78
2023/03/30 21:06:26;;;;;;;;;;;5.90;99.90;;;;;;8260501;28;19905;-79
2023/03/30 21:10:26;;;;;;;;;;;5.90;99.90;;;;;;8262561;28;19917;-79
2023/03/30 21:14:27;;;;;;;;;;;6.20;99.90;;;;;;8264343;28;20362;-78
2023/03/30 21:18:27;;;;;;;;;;;6.30;99.90;;;;;;8268055;28;19906;-80
2023/03/30 21:22:28;;;;;;;;;;;6.10;99.90;;;;;;8258478;28;19914;-79
2023/03/30 21:26:29;;;;;;;;;;;5.90;99.90;;;;;;8253005;28;19905;-77
2023/03/30 21:30:32;;;;;;;;;;;5.80;99.90;;;;;;8265488;28;19916;-79
2023/03/30 21:34:32;;;;;;;;;;;5.70;99.90;;;;;;8262174;28;19973;-79
2023/03/30 21:38:34;;;;;;;;;;;5.60;99.90;;;;;;8258052;28;19957;-79
2023/03/30 21:42:34;;;;;;;;;;;5.50;99.90;;;;;;8265188;28;19921;-79
2023/03/30 21:46:35;;;;;;;;;;;5.40;99.90;;;;;;8254501;28;19905;-79
2023/03/30 21:50:35;;;;;;;;;;;5.30;99.90;;;;;;8256194;28;20052;-79
2023/03/30 21:54:36;;;;;;;;;;;5.20;99.90;;;;;;8259356;28;19913;-79
2023/03/30 21:58:37;;;;;;;;;;;5.20;99.90;;;;;;8263660;28;19910;-79
2023/03/30 22:02:37;;;;;;;;;;;5.20;99.90;;;;;;8256669;28;19905;-79
2023/03/30 22:06:38;;;;;;;;;;;5.20;99.90;;;;;;8254895;28;20176;-79
2023/03/30 22:10:39;;;;;;;;;;;5.30;99.90;;;;;;8260389;28;19988;-78
2023/03/30 22:14:39;;;;;;;;;;;5.40;99.90;;;;;;8249206;28;20367;-79
2023/03/30 22:18:40;;;;;;;;;;;5.40;99.90;;;;;;8248959;28;19909;-79
2023/03/30 22:22:41;;;;;;;;;;;5.60;99.90;;;;;;8248752;28;19906;-79
2023/03/30 22:26:42;;;;;;;;;;;5.90;99.90;;;;;;8255594;28;19910;-79
2023/03/30 22:30:43;;;;;;;;;;;6.10;99.90;;;;;;8258630;28;20370;-78
2023/03/30 22:34:43;;;;;;;;;;;6.30;99.90;;;;;;8249223;28;19910;-79
2023/03/30 22:38:45;;;;;;;;;;;6.30;99.90;;;;;;8248827;28;19906;-78
2023/03/30 22:42:45;;;;;;;;;;;6.20;99.90;;;;;;8254266;28;19906;-79
2023/03/30 22:46:46;;;;;;;;;;;6.30;99.90;;;;;;8264658;28;20321;-78
2023/03/30 22:50:46;;;;;;;;;;;6.30;99.90;;;;;;8263107;28;20012;-79
2023/03/30 22:54:47;;;;;;;;;;;6.50;99.90;;;;;;8264300;28;19979;-79
2023/03/30 22:58:47;;;;;;;;;;;6.40;99.90;;;;;;8256268;28;19910;-78
2023/03/30 23:02:48;;;;;;;;;;;6.30;99.90;;;;;;8246612;28;19906;-78
2023/03/30 23:06:49;;;;;;;;;;;6.20;99.90;;;;;;8247780;28;19906;-79
2023/03/30 23:10:52;;;;;;;;;;;6.20;99.90;;;;;;8243209;28;19917;-79
2023/03/30 23:14:53;;;;;;;;;;;6.20;99.90;;;;;;8262060;28;19905;-79
2023/03/30 23:18:54;;;;;;;;;;;6.20;99.90;;;;;;8239937;28;19918;-79
2023/03/30 23:22:54;;;;;;;;;;;6.10;99.90;;;;;;8252268;28;19956;-79
2023/03/30 23:26:55;;;;;;;;;;;6.20;99.90;;;;;;8251309;28;19963;-79
2023/03/30 23:30:56;;;;;;;;;;;6.20;99.90;;;;;;8246513;28;19992;-79
2023/03/30 23:34:57;;;;;;;;;;;6.40;99.90;;;;;;8253503;28;19960;-79
2023/03/30 23:38:57;;;;;;;;;;;6.30;99.90;;;;;;8246759;28;20371;-79